Time;durP1;ratioP1;P1;durP2;ratioP2;P2;SDS_P1;SDS_P2;PMS_P1;PMS_P2;Temp;Humidity;BMP_temperature;BMP_pressure;BME280_temperature;BME280_humidity;BME280_pressure;Samples;Min_cycle;Max_cycle;Signal;HPM_P1;HPM_P2
2022/05/06 00:00:12;;;;;;;15.85;8.25;;;;;;;;;;8260021;28;20139;-61
2022/05/06 00:04:14;;;;;;;12.43;8.52;;;;;;;;;;8261123;28;20032;-61
2022/05/06 00:08:14;;;;;;;11.32;8.00;;;;;;;;;;8262816;28;20075;-60
2022/05/06 00:12:17;;;;;;;10.75;7.95;;;;;;;;;;8262846;28;20124;-61
2022/05/06 00:16:24;;;;;;;13.65;8.40;;;;;;;;;;8263293;28;20042;-60
2022/05/06 00:20:24;;;;;;;12.80;8.25;;;;;;;;;;8261399;28;20025;-60
2022/05/06 00:24:25;;;;;;;10.47;7.27;;;;;;;;;;8263479;28;20375;-61
2022/05/06 00:28:25;;;;;;;9.65;6.90;;;;;;;;;;8260172;28;20350;-60
2022/05/06 00:32:25;;;;;;;10.82;7.65;;;;;;;;;;8262073;28;20041;-61
2022/05/06 00:36:25;;;;;;;10.32;7.60;;;;;;;;;;8260697;28;20025;-61
2022/05/06 00:40:25;;;;;;;11.82;8.05;;;;;;;;;;8258164;28;20413;-61
2022/05/06 00:44:26;;;;;;;10.68;7.03;;;;;;;;;;8261323;28;20072;-61
2022/05/06 00:48:27;;;;;;;8.37;6.73;;;;;;;;;;8261477;28;20344;-62
2022/05/06 00:52:28;;;;;;;10.02;7.50;;;;;;;;;;8261450;28;20359;-61
2022/05/06 00:56:28;;;;;;;12.32;7.72;;;;;;;;;;8261532;28;20026;-60
2022/05/06 01:00:29;;;;;;;10.50;7.17;;;;;;;;;;8258476;28;20073;-60
2022/05/06 01:04:29;;;;;;;13.75;8.00;;;;;;;;;;8261280;28;20265;-60
2022/05/06 01:08:30;;;;;;;10.45;7.70;;;;;;;;;;8258888;28;20033;-60
2022/05/06 01:12:30;;;;;;;9.93;7.07;;;;;;;;;;8256658;28;20033;-60
2022/05/06 01:16:33;;;;;;;11.10;6.80;;;;;;;;;;8258379;28;20044;-61
2022/05/06 01:20:37;;;;;;;10.07;7.50;;;;;;;;;;8260322;28;20661;-61
2022/05/06 01:24:37;;;;;;;11.43;7.57;;;;;;;;;;8260928;28;20034;-61
2022/05/06 01:28:38;;;;;;;10.27;7.20;;;;;;;;;;8258160;28;20039;-60
2022/05/06 01:32:39;;;;;;;9.70;6.85;;;;;;;;;;8256572;28;20269;-61
2022/05/06 01:36:40;;;;;;;13.40;6.95;;;;;;;;;;8258079;28;20092;-61
2022/05/06 01:40:47;;;;;;;12.57;6.55;;;;;;;;;;8257859;28;20065;-60
2022/05/06 01:44:47;;;;;;;9.52;6.90;;;;;;;;;;8259224;28;20034;-60
2022/05/06 01:48:49;;;;;;;11.10;6.63;;;;;;;;;;8257752;28;20038;-60
2022/05/06 01:52:52;;;;;;;11.15;7.00;;;;;;;;;;8255353;28;21021;-61
2022/05/06 01:56:53;;;;;;;9.13;6.85;;;;;;;;;;8258534;28;20034;-61
2022/05/06 02:00:53;;;;;;;8.35;6.35;;;;;;;;;;8254566;28;20088;-60
2022/05/06 02:09:12;;;;;;;8.95;6.55;;;;;;;;;;8257192;28;20033;-60
2022/05/06 02:13:12;;;;;;;9.83;6.50;;;;;;;;;;8255739;28;20057;-61
2022/05/06 02:17:12;;;;;;;8.25;6.15;;;;;;;;;;8256617;28;21219;-60
2022/05/06 02:21:12;;;;;;;8.85;6.18;;;;;;;;;;8255792;28;20061;-61
2022/05/06 02:25:13;;;;;;;7.17;6.00;;;;;;;;;;8256492;28;20022;-60
2022/05/06 02:29:13;;;;;;;9.20;6.90;;;;;;;;;;8257030;28;20331;-61
2022/05/06 02:33:13;;;;;;;12.40;6.45;;;;;;;;;;8256404;28;20096;-61
2022/05/06 02:37:13;;;;;;;10.05;7.28;;;;;;;;;;8257768;28;20026;-60
2022/05/06 02:41:16;;;;;;;10.75;7.18;;;;;;;;;;8258297;28;20471;-61
2022/05/06 02:45:16;;;;;;;8.10;6.25;;;;;;;;;;8258023;28;20430;-61
2022/05/06 02:49:16;;;;;;;8.48;6.28;;;;;;;;;;8258744;28;20032;-60
2022/05/06 02:53:19;;;;;;;8.35;6.45;;;;;;;;;;8257845;28;20023;-60
2022/05/06 02:57:19;;;;;;;8.68;5.80;;;;;;;;;;8257949;28;20088;-61
2022/05/06 03:01:19;;;;;;;7.35;5.30;;;;;;;;;;8257011;28;20342;-61
2022/05/06 03:05:19;;;;;;;5.63;5.03;;;;;;;;;;8256866;28;20033;-61
2022/05/06 03:09:19;;;;;;;6.05;5.28;;;;;;;;;;8257769;28;20781;-60
2022/05/06 03:13:20;;;;;;;9.18;5.57;;;;;;;;;;8258186;28;20061;-60
2022/05/06 03:17:20;;;;;;;9.07;5.65;;;;;;;;;;8256391;28;20036;-61
2022/05/06 03:21:20;;;;;;;13.02;5.85;;;;;;;;;;8256574;28;20022;-60
2022/05/06 03:25:21;;;;;;;12.98;5.47;;;;;;;;;;8262693;28;20044;-61
2022/05/06 03:29:21;;;;;;;6.57;5.18;;;;;;;;;;8263022;28;20026;-61
2022/05/06 03:33:21;;;;;;;7.90;5.20;;;;;;;;;;8261913;28;20054;-61
2022/05/06 03:37:21;;;;;;;8.90;5.50;;;;;;;;;;8264869;28;20489;-61
2022/05/06 03:41:21;;;;;;;11.00;5.93;;;;;;;;;;8262697;28;20441;-61
2022/05/06 03:45:22;;;;;;;8.40;5.25;;;;;;;;;;8263895;28;20261;-60
2022/05/06 03:49:22;;;;;;;6.78;5.00;;;;;;;;;;8263531;28;20080;-61
2022/05/06 03:53:23;;;;;;;9.85;5.28;;;;;;;;;;8263282;28;20061;-60
2022/05/06 03:57:24;;;;;;;9.20;5.20;;;;;;;;;;8263520;28;20171;-61
2022/05/06 04:01:24;;;;;;;5.13;4.50;;;;;;;;;;8262334;28;20069;-60
2022/05/06 04:05:24;;;;;;;7.85;4.93;;;;;;;;;;8263148;28;20279;-61
2022/05/06 04:09:26;;;;;;;8.15;4.22;;;;;;;;;;8261746;28;20751;-60
2022/05/06 04:13:26;;;;;;;6.80;4.88;;;;;;;;;;8260252;28;20875;-61
2022/05/06 04:17:26;;;;;;;6.50;4.97;;;;;;;;;;8261451;28;20037;-60
2022/05/06 04:25:45;;;;;;;6.75;5.07;;;;;;;;;;8262288;28;20060;-60
2022/05/06 04:29:45;;;;;;;9.55;4.90;;;;;;;;;;8261081;28;20025;-59
2022/05/06 04:33:45;;;;;;;8.70;4.60;;;;;;;;;;8260309;28;20042;-60
2022/05/06 04:37:46;;;;;;;6.85;4.47;;;;;;;;;;8260485;28;20036;-60
2022/05/06 04:41:48;;;;;;;6.93;4.85;;;;;;;;;;8262043;28;20877;-60
2022/05/06 04:45:49;;;;;;;12.73;4.90;;;;;;;;;;8261554;28;20064;-60
2022/05/06 04:49:49;;;;;;;5.65;4.30;;;;;;;;;;8261373;28;20026;-60
2022/05/06 04:53:54;;;;;;;5.80;3.78;;;;;;;;;;8262317;28;20024;-60
2022/05/06 04:57:54;;;;;;;6.10;3.90;;;;;;;;;;8259693;28;20029;-60
2022/05/06 05:01:55;;;;;;;7.47;4.03;;;;;;;;;;8260882;28;20672;-61
2022/05/06 05:05:56;;;;;;;5.15;3.78;;;;;;;;;;8259966;28;20057;-61
2022/05/06 05:09:56;;;;;;;6.60;3.53;;;;;;;;;;8261510;28;20037;-60
2022/05/06 05:13:56;;;;;;;5.43;3.97;;;;;;;;;;8259719;28;20022;-60
2022/05/06 05:17:56;;;;;;;7.43;4.20;;;;;;;;;;8260961;28;20052;-60
2022/05/06 05:21:56;;;;;;;4.90;3.87;;;;;;;;;;8260051;28;20711;-60
2022/05/06 05:25:57;;;;;;;8.07;4.13;;;;;;;;;;8263479;28;21237;-60
2022/05/06 05:29:58;;;;;;;6.70;3.60;;;;;;;;;;8258354;28;20076;-60
2022/05/06 05:33:58;;;;;;;5.22;3.75;;;;;;;;;;8261069;28;20038;-60
2022/05/06 05:38:00;;;;;;;5.93;4.03;;;;;;;;;;8261013;28;20022;-60
2022/05/06 05:42:00;;;;;;;7.85;4.38;;;;;;;;;;8260417;28;20131;-60
2022/05/06 05:50:19;;;;;;;5.70;3.72;;;;;;;;;;8259433;28;20414;-60
2022/05/06 05:54:19;;;;;;;10.10;4.35;;;;;;;;;;8259809;28;20050;-60
2022/05/06 05:58:20;;;;;;;3.67;3.10;;;;;;;;;;8259469;28;20062;-61
2022/05/06 06:02:20;;;;;;;6.53;3.17;;;;;;;;;;8258192;28;20029;-60
2022/05/06 06:06:20;;;;;;;9.33;3.03;;;;;;;;;;8259751;28;20648;-60
2022/05/06 06:10:20;;;;;;;6.65;3.10;;;;;;;;;;8259563;28;20285;-61
2022/05/06 06:14:20;;;;;;;6.15;2.92;;;;;;;;;;8258132;28;20029;-61
2022/05/06 06:18:26;;;;;;;4.82;2.70;;;;;;;;;;8258859;28;20065;-61
2022/05/06 06:22:26;;;;;;;8.73;2.92;;;;;;;;;;8256003;28;20045;-61
2022/05/06 06:26:26;;;;;;;2.85;2.40;;;;;;;;;;8256037;28;20569;-60
2022/05/06 06:30:27;;;;;;;4.30;2.42;;;;;;;;;;8258740;28;20030;-61
2022/05/06 06:34:27;;;;;;;3.65;2.20;;;;;;;;;;8259016;28;20014;-61
2022/05/06 06:38:27;;;;;;;2.90;2.00;;;;;;;;;;8257200;28;20025;-61
2022/05/06 06:42:27;;;;;;;3.13;2.13;;;;;;;;;;8257591;28;21133;-60
2022/05/06 06:46:27;;;;;;;3.67;2.28;;;;;;;;;;8250185;28;20042;-60
2022/05/06 06:50:28;;;;;;;3.77;1.80;;;;;;;;;;8248390;28;20022;-60
2022/05/06 06:54:28;;;;;;;3.60;1.98;;;;;;;;;;8248035;28;20026;-60
2022/05/06 06:58:28;;;;;;;4.55;2.00;;;;;;;;;;8250919;28;20088;-60
2022/05/06 07:02:29;;;;;;;3.97;1.80;;;;;;;;;;8255718;28;20065;-60
2022/05/06 07:15:07;;;;;;;2.47;2.10;;;;;;;;;;8253688;28;20665;-61
2022/05/06 07:19:07;;;;;;;4.47;2.10;;;;;;;;;;8255531;28;20399;-62
2022/05/06 07:23:07;;;;;;;3.67;2.10;;;;;;;;;;8263391;28;20026;-61
2022/05/06 07:27:08;;;;;;;3.22;2.30;;;;;;;;;;8264620;28;20025;-60
2022/05/06 07:31:08;;;;;;;4.60;2.22;;;;;;;;;;8260459;28;20037;-61
2022/05/06 07:35:09;;;;;;;2.40;2.20;;;;;;;;;;8263083;28;20072;-60
2022/05/06 07:39:10;;;;;;;2.73;2.23;;;;;;;;;;8261474;28;20030;-61
2022/05/06 07:43:10;;;;;;;4.78;2.60;;;;;;;;;;8259597;28;20025;-61
2022/05/06 07:47:10;;;;;;;4.40;2.50;;;;;;;;;;8254138;28;20030;-62
2022/05/06 07:51:10;;;;;;;3.15;2.35;;;;;;;;;;8252631;28;20359;-61
2022/05/06 07:55:13;;;;;;;3.13;2.35;;;;;;;;;;8258892;28;20096;-61
2022/05/06 07:59:14;;;;;;;2.85;2.13;;;;;;;;;;8259450;28;20041;-61
2022/05/06 08:07:33;;;;;;;3.33;2.40;;;;;;;;;;8257852;28;20076;-61
2022/05/06 08:11:33;;;;;;;2.15;2.00;;;;;;;;;;8249973;28;20490;-61
2022/05/06 08:15:33;;;;;;;3.05;2.50;;;;;;;;;;8245028;28;20164;-61
2022/05/06 08:19:34;;;;;;;7.10;3.00;;;;;;;;;;8246192;28;20716;-61
2022/05/06 08:23:35;;;;;;;3.80;2.90;;;;;;;;;;8248826;28;20411;-61
2022/05/06 08:27:36;;;;;;;3.50;2.50;;;;;;;;;;8256745;28;21060;-61
2022/05/06 08:31:37;;;;;;;5.03;2.75;;;;;;;;;;8256037;28;20655;-61
2022/05/06 08:35:37;;;;;;;6.03;2.80;;;;;;;;;;8258813;28;20056;-61
2022/05/06 08:39:38;;;;;;;6.63;2.78;;;;;;;;;;8256919;28;20541;-62
2022/05/06 08:43:38;;;;;;;3.87;2.80;;;;;;;;;;8259667;28;20025;-61
2022/05/06 08:51:58;;;;;;;3.60;2.72;;;;;;;;;;8259015;28;20033;-61
2022/05/06 08:55:59;;;;;;;3.03;2.42;;;;;;;;;;8259077;28;20141;-61
2022/05/06 08:59:59;;;;;;;3.63;2.50;;;;;;;;;;8254073;28;20050;-61
2022/05/06 09:04:00;;;;;;;6.10;2.72;;;;;;;;;;8254737;28;20032;-61
2022/05/06 09:08:03;;;;;;;4.90;2.60;;;;;;;;;;8257974;28;20018;-62
2022/05/06 09:16:41;;;;;;;3.63;2.30;;;;;;;;;;8255183;28;20711;-61
2022/05/06 09:20:42;;;;;;;6.45;2.40;;;;;;;;;;8253627;28;20091;-61
2022/05/06 09:24:43;;;;;;;6.68;2.53;;;;;;;;;;8256205;28;20208;-61
2022/05/06 09:28:43;;;;;;;2.15;1.70;;;;;;;;;;8256540;28;20036;-61
2022/05/06 09:32:43;;;;;;;4.05;2.10;;;;;;;;;;8257422;28;20052;-61
2022/05/06 09:36:44;;;;;;;4.50;1.90;;;;;;;;;;8255692;28;20032;-61
2022/05/06 09:40:44;;;;;;;3.35;1.60;;;;;;;;;;8255586;28;20033;-61
2022/05/06 09:44:46;;;;;;;2.45;1.90;;;;;;;;;;8254504;28;20026;-61
2022/05/06 09:48:46;;;;;;;;;;;;;;;;;;8257082;28;20038;-61
2022/05/06 09:52:57;;;;;;;4.32;1.83;;;;;;;;;;8257380;28;20892;-61
2022/05/06 09:56:58;;;;;;;3.42;1.80;;;;;;;;;;8254178;28;20694;-61
2022/05/06 10:00:58;;;;;;;5.00;1.48;;;;;;;;;;8249706;28;20046;-62
2022/05/06 10:04:58;;;;;;;2.70;1.63;;;;;;;;;;8255487;28;20022;-61
2022/05/06 10:09:01;;;;;;;3.85;1.85;;;;;;;;;;8257319;28;20176;-61
2022/05/06 10:13:03;;;;;;;6.33;1.80;;;;;;;;;;8255511;28;20060;-62
2022/05/06 10:17:03;;;;;;;2.43;1.80;;;;;;;;;;8244145;28;20108;-61
2022/05/06 10:21:07;;;;;;;4.68;1.90;;;;;;;;;;8246880;28;20284;-61
2022/05/06 10:25:07;;;;;;;4.07;1.80;;;;;;;;;;8248691;28;20071;-61
2022/05/06 10:33:47;;;;;;;3.53;1.50;;;;;;;;;;8244910;28;20282;-61
2022/05/06 10:37:49;;;;;;;3.13;1.30;;;;;;;;;;8245450;28;20029;-61
2022/05/06 10:42:02;;;;;;;3.60;1.30;;;;;;;;;;8247055;28;20044;-60
2022/05/06 10:46:02;;;;;;;2.38;1.42;;;;;;;;;;8248710;28;20034;-60
2022/05/06 10:50:12;;;;;;;2.85;1.40;;;;;;;;;;8249030;28;20424;-60
2022/05/06 10:54:14;;;;;;;3.92;1.40;;;;;;;;;;8252428;28;20523;-60
2022/05/06 10:58:14;;;;;;;4.10;1.58;;;;;;;;;;8282051;28;20044;-60
2022/05/06 11:02:16;;;;;;;3.47;1.52;;;;;;;;;;8248425;28;20038;-60
2022/05/06 11:06:19;;;;;;;2.20;1.20;;;;;;;;;;8252892;28;20353;-60
2022/05/06 11:10:21;;;;;;;3.22;1.38;;;;;;;;;;8249663;28;20327;-60
2022/05/06 11:14:22;;;;;;;2.13;1.20;;;;;;;;;;8251429;28;20455;-60
2022/05/06 11:18:22;;;;;;;4.35;1.60;;;;;;;;;;8248445;28;20076;-61
2022/05/06 11:22:23;;;;;;;1.83;1.53;;;;;;;;;;8247957;28;20220;-60
2022/05/06 11:26:25;;;;;;;2.47;1.70;;;;;;;;;;8246026;28;20034;-60
2022/05/06 11:30:26;;;;;;;3.35;1.80;;;;;;;;;;8248542;28;20495;-60
2022/05/06 11:34:27;;;;;;;1.67;1.58;;;;;;;;;;8248643;28;20018;-60
2022/05/06 11:38:31;;;;;;;1.92;1.45;;;;;;;;;;8252665;28;20542;-60
2022/05/06 11:42:35;;;;;;;1.60;1.50;;;;;;;;;;8250372;28;20018;-60
2022/05/06 11:50:59;;;;;;;2.67;1.33;;;;;;;;;;8256050;28;20454;-60
2022/05/06 11:55:00;;;;;;;1.90;1.30;;;;;;;;;;8254820;28;20026;-60
2022/05/06 11:59:01;;;;;;;2.30;1.48;;;;;;;;;;8255976;28;20029;-60
2022/05/06 12:03:02;;;;;;;2.20;1.38;;;;;;;;;;8254379;28;20068;-60
2022/05/06 12:07:03;;;;;;;2.03;1.17;;;;;;;;;;8254828;28;20018;-60
2022/05/06 12:11:05;;;;;;;2.30;1.42;;;;;;;;;;8253295;28;20112;-60
2022/05/06 12:15:09;;;;;;;1.27;1.02;;;;;;;;;;8253999;28;20398;-60
2022/05/06 12:19:09;;;;;;;1.50;1.25;;;;;;;;;;8252881;28;20041;-60
2022/05/06 12:23:10;;;;;;;2.47;1.67;;;;;;;;;;8255472;28;20529;-60
2022/05/06 12:27:10;;;;;;;1.88;1.50;;;;;;;;;;8252812;28;20022;-60
2022/05/06 12:31:10;;;;;;;2.17;1.20;;;;;;;;;;8253391;28;20034;-60
2022/05/06 12:35:14;;;;;;;1.95;1.40;;;;;;;;;;8253916;28;20592;-60
2022/05/06 12:39:18;;;;;;;2.92;1.52;;;;;;;;;;8253163;28;20464;-60
2022/05/06 12:43:26;;;;;;;1.98;1.40;;;;;;;;;;8253049;28;20483;-60
2022/05/06 12:51:49;;;;;;;;;;;;;;;;;;8252305;28;20305;-60
2022/05/06 12:55:49;;;;;;;2.80;1.50;;;;;;;;;;8252402;28;19913;-61
2022/05/06 12:59:50;;;;;;;2.42;1.42;;;;;;;;;;8252968;28;20044;-60
2022/05/06 13:03:50;;;;;;;1.85;1.50;;;;;;;;;;8249176;28;20440;-60
2022/05/06 13:07:50;;;;;;;2.63;1.40;;;;;;;;;;8254066;28;20026;-60
2022/05/06 13:11:51;;;;;;;1.40;1.30;;;;;;;;;;8251912;28;20250;-60
2022/05/06 13:15:51;;;;;;;7.75;1.63;;;;;;;;;;8253193;28;20523;-60
2022/05/06 13:19:51;;;;;;;2.72;1.70;;;;;;;;;;8252243;28;20368;-61
2022/05/06 13:23:52;;;;;;;3.00;1.50;;;;;;;;;;8248633;28;20018;-60
2022/05/06 13:27:52;;;;;;;1.77;1.20;;;;;;;;;;8249617;28;20029;-60
2022/05/06 13:31:52;;;;;;;4.97;1.55;;;;;;;;;;8251270;28;20041;-60
2022/05/06 13:35:52;;;;;;;2.22;1.35;;;;;;;;;;8250679;28;20022;-60
2022/05/06 13:39:53;;;;;;;1.88;1.25;;;;;;;;;;8252261;28;20034;-60
2022/05/06 13:43:53;;;;;;;2.17;1.20;;;;;;;;;;8251164;28;20022;-60
2022/05/06 13:47:53;;;;;;;2.58;1.40;;;;;;;;;;8251878;28;20034;-61
2022/05/06 13:51:54;;;;;;;5.25;1.33;;;;;;;;;;8251076;28;20554;-60
2022/05/06 14:00:12;;;;;;;1.40;1.30;;;;;;;;;;8251252;28;20572;-60
2022/05/06 14:04:13;;;;;;;3.65;1.63;;;;;;;;;;8251696;28;20108;-60
2022/05/06 14:08:13;;;;;;;1.13;1.00;;;;;;;;;;8251620;28;20045;-60
2022/05/06 14:12:13;;;;;;;3.05;1.60;;;;;;;;;;8249174;28;20036;-60
2022/05/06 14:16:13;;;;;;;1.40;1.30;;;;;;;;;;8250443;28;20042;-60
2022/05/06 14:20:14;;;;;;;1.67;1.30;;;;;;;;;;8247298;28;20065;-60
2022/05/06 14:24:14;;;;;;;1.73;1.20;;;;;;;;;;8252617;28;20028;-60
2022/05/06 14:28:14;;;;;;;4.50;1.30;;;;;;;;;;8249346;28;20025;-60
2022/05/06 14:32:14;;;;;;;2.78;1.30;;;;;;;;;;8250949;28;20484;-60
2022/05/06 14:36:19;;;;;;;1.80;1.40;;;;;;;;;;8250503;28;20049;-60
2022/05/06 14:40:20;;;;;;;1.88;1.30;;;;;;;;;;8250314;28;20348;-60
2022/05/06 14:44:20;;;;;;;2.20;1.30;;;;;;;;;;8250569;28;20014;-60
2022/05/06 14:48:20;;;;;;;4.65;1.38;;;;;;;;;;8249982;28;20022;-60
2022/05/06 14:52:23;;;;;;;1.85;1.30;;;;;;;;;;8248979;28;20470;-60
2022/05/06 14:56:25;;;;;;;4.47;1.40;;;;;;;;;;8281758;28;20022;-60
2022/05/06 15:00:25;;;;;;;2.50;1.10;;;;;;;;;;8250141;28;20041;-60
2022/05/06 15:04:25;;;;;;;3.57;1.20;;;;;;;;;;8249834;28;20498;-60
2022/05/06 15:08:25;;;;;;;3.33;1.40;;;;;;;;;;8251888;28;20053;-60
2022/05/06 15:12:25;;;;;;;3.75;1.27;;;;;;;;;;8243776;28;20153;-60
2022/05/06 15:16:26;;;;;;;1.70;1.40;;;;;;;;;;8247528;28;20616;-60
2022/05/06 15:20:26;;;;;;;1.52;1.20;;;;;;;;;;8247500;28;20513;-60
2022/05/06 15:24:27;;;;;;;2.95;1.30;;;;;;;;;;8250745;28;20026;-60
2022/05/06 15:28:27;;;;;;;2.10;1.40;;;;;;;;;;8251857;28;20032;-60
2022/05/06 15:32:27;;;;;;;7.68;1.35;;;;;;;;;;8252711;28;20038;-60
2022/05/06 15:36:27;;;;;;;2.45;1.30;;;;;;;;;;8249930;28;20022;-60
2022/05/06 15:40:30;;;;;;;3.47;1.27;;;;;;;;;;8252018;28;20137;-61
2022/05/06 15:44:30;;;;;;;2.88;1.25;;;;;;;;;;8252244;28;20443;-60
2022/05/06 15:48:30;;;;;;;3.67;1.23;;;;;;;;;;8250371;28;20097;-61
2022/05/06 15:52:31;;;;;;;2.67;1.13;;;;;;;;;;8251610;28;20611;-60
2022/05/06 15:56:31;;;;;;;2.70;1.20;;;;;;;;;;8251226;28;20375;-60
2022/05/06 16:00:31;;;;;;;2.63;1.20;;;;;;;;;;8250546;28;20137;-60
2022/05/06 16:04:32;;;;;;;2.10;1.20;;;;;;;;;;8251831;28;20033;-60
2022/05/06 16:08:32;;;;;;;3.42;1.30;;;;;;;;;;8250734;28;20321;-60
2022/05/06 16:12:33;;;;;;;3.65;1.30;;;;;;;;;;8250113;28;20045;-60
2022/05/06 16:16:33;;;;;;;5.60;1.27;;;;;;;;;;8251155;28;20100;-60
2022/05/06 16:20:33;;;;;;;2.28;1.20;;;;;;;;;;8249392;28;20152;-60
2022/05/06 16:24:33;;;;;;;2.88;1.40;;;;;;;;;;8251427;28;20021;-60
2022/05/06 16:28:34;;;;;;;3.08;1.20;;;;;;;;;;8250486;28;20131;-60
2022/05/06 16:32:34;;;;;;;3.37;1.10;;;;;;;;;;8248347;28;20415;-60
2022/05/06 16:40:53;;;;;;;1.40;1.30;;;;;;;;;;8250008;28;20529;-60
2022/05/06 16:44:54;;;;;;;3.72;1.20;;;;;;;;;;8249633;28;20022;-60
2022/05/06 16:48:55;;;;;;;4.85;1.10;;;;;;;;;;8250932;28;20113;-60
2022/05/06 16:52:55;;;;;;;1.88;1.20;;;;;;;;;;8249884;28;20026;-60
2022/05/06 16:56:55;;;;;;;2.33;1.20;;;;;;;;;;8248927;28;20939;-60
2022/05/06 17:00:55;;;;;;;4.40;1.23;;;;;;;;;;8249456;28;20130;-60
2022/05/06 17:04:56;;;;;;;3.42;1.20;;;;;;;;;;8246979;28;20049;-60
2022/05/06 17:08:57;;;;;;;3.00;1.38;;;;;;;;;;8249932;28;20022;-60
2022/05/06 17:12:57;;;;;;;2.75;1.20;;;;;;;;;;8250225;28;20395;-59
2022/05/06 17:16:58;;;;;;;4.15;1.00;;;;;;;;;;8248113;28;20658;-60
2022/05/06 17:20:58;;;;;;;3.95;1.20;;;;;;;;;;8248341;28;20391;-60
2022/05/06 17:24:58;;;;;;;2.45;1.20;;;;;;;;;;8248437;28;20582;-59
2022/05/06 17:28:58;;;;;;;1.83;1.02;;;;;;;;;;8248671;28;20026;-60
2022/05/06 17:32:58;;;;;;;2.47;1.17;;;;;;;;;;8258598;28;20128;-59
2022/05/06 17:36:59;;;;;;;1.77;1.15;;;;;;;;;;8257468;28;20056;-59
2022/05/06 17:40:59;;;;;;;5.90;1.20;;;;;;;;;;8257239;28;20030;-59
2022/05/06 17:44:59;;;;;;;1.30;1.10;;;;;;;;;;8256998;28;20025;-59
2022/05/06 17:48:59;;;;;;;1.23;0.90;;;;;;;;;;8254648;28;20522;-59
2022/05/06 17:53:00;;;;;;;3.23;1.40;;;;;;;;;;8257968;28;20955;-60
2022/05/06 17:57:00;;;;;;;4.10;1.10;;;;;;;;;;8257519;28;20704;-59
2022/05/06 18:01:15;;;;;;;4.93;1.17;;;;;;;;;;8254562;28;20041;-60
2022/05/06 18:05:15;;;;;;;1.52;0.95;;;;;;;;;;8257333;28;20612;-59
2022/05/06 18:09:15;;;;;;;1.37;0.93;;;;;;;;;;8256505;28;20460;-60
2022/05/06 18:13:16;;;;;;;1.88;1.00;;;;;;;;;;8256160;28;20365;-59
2022/05/06 18:17:16;;;;;;;0.90;0.90;;;;;;;;;;8256057;28;20022;-59
2022/05/06 18:21:18;;;;;;;1.57;1.10;;;;;;;;;;8255252;28;20025;-60
2022/05/06 18:25:18;;;;;;;1.48;0.98;;;;;;;;;;8256949;28;20260;-59
2022/05/06 18:29:18;;;;;;;1.02;0.88;;;;;;;;;;8256945;28;20028;-59
2022/05/06 18:33:20;;;;;;;1.15;0.88;;;;;;;;;;8255311;28;20038;-60
2022/05/06 18:37:20;;;;;;;2.60;1.10;;;;;;;;;;8255639;28;20490;-59
2022/05/06 18:41:21;;;;;;;1.80;1.10;;;;;;;;;;8255664;28;20112;-60
2022/05/06 18:45:21;;;;;;;2.38;1.00;;;;;;;;;;8254963;28;20025;-63
2022/05/06 18:49:24;;;;;;;4.55;1.10;;;;;;;;;;8256516;28;20328;-59
2022/05/06 18:53:24;;;;;;;3.28;1.30;;;;;;;;;;8256074;28;20049;-60
2022/05/06 18:57:25;;;;;;;1.27;1.10;;;;;;;;;;8262480;28;20030;-60
2022/05/06 19:01:25;;;;;;;2.38;1.60;;;;;;;;;;8261908;28;20042;-59
2022/05/06 19:05:29;;;;;;;3.95;2.00;;;;;;;;;;8263012;28;20125;-59
2022/05/06 19:09:29;;;;;;;4.68;1.60;;;;;;;;;;8263577;28;20021;-61
2022/05/06 19:13:30;;;;;;;1.90;1.30;;;;;;;;;;8262209;28;20703;-60
2022/05/06 19:17:30;;;;;;;2.47;1.40;;;;;;;;;;8265786;28;20196;-59
2022/05/06 19:25:49;;;;;;;4.47;1.13;;;;;;;;;;8261691;28;20064;-60
2022/05/06 19:29:50;;;;;;;5.85;1.27;;;;;;;;;;8261801;28;20033;-59
2022/05/06 19:33:50;;;;;;;2.65;1.10;;;;;;;;;;8260254;28;20045;-60
2022/05/06 19:37:50;;;;;;;2.03;1.35;;;;;;;;;;8262217;28;20060;-60
2022/05/06 19:41:51;;;;;;;2.83;1.13;;;;;;;;;;8260332;28;20092;-60
2022/05/06 19:45:51;;;;;;;2.17;1.30;;;;;;;;;;8259345;28;20029;-60
2022/05/06 19:49:51;;;;;;;5.00;1.40;;;;;;;;;;8260561;28;20060;-60
2022/05/06 19:53:52;;;;;;;3.78;1.20;;;;;;;;;;8260186;28;20018;-60
2022/05/06 19:57:54;;;;;;;2.00;1.23;;;;;;;;;;8260197;28;20045;-60
2022/05/06 20:01:54;;;;;;;2.40;1.30;;;;;;;;;;8260415;28;20056;-60
2022/05/06 20:05:55;;;;;;;2.05;1.25;;;;;;;;;;8260350;28;20113;-60
2022/05/06 20:09:55;;;;;;;6.50;1.30;;;;;;;;;;8258913;28;20022;-60
2022/05/06 20:13:56;;;;;;;3.15;1.35;;;;;;;;;;8260600;28;20497;-59
2022/05/06 20:17:57;;;;;;;1.85;1.20;;;;;;;;;;8253799;28;20034;-59
2022/05/06 20:21:57;;;;;;;1.08;1.00;;;;;;;;;;8250923;28;20054;-59
2022/05/06 20:25:57;;;;;;;1.27;1.10;;;;;;;;;;8254472;28;20682;-59
2022/05/06 20:29:58;;;;;;;3.08;1.27;;;;;;;;;;8252051;28;20567;-59
2022/05/06 20:33:58;;;;;;;1.77;1.30;;;;;;;;;;8253929;28;20037;-59
2022/05/06 20:37:58;;;;;;;1.20;1.10;;;;;;;;;;8253580;28;20026;-60
2022/05/06 20:41:58;;;;;;;1.50;1.00;;;;;;;;;;8252555;28;20445;-59
2022/05/06 20:45:58;;;;;;;1.17;0.90;;;;;;;;;;8251570;28;20116;-59
2022/05/06 20:49:59;;;;;;;1.35;1.08;;;;;;;;;;8252725;28;20030;-59
2022/05/06 20:54:01;;;;;;;3.80;1.20;;;;;;;;;;8253762;28;20112;-59
2022/05/06 21:02:19;;;;;;;1.27;1.10;;;;;;;;;;8253074;28;20056;-59
2022/05/06 21:06:20;;;;;;;2.15;1.58;;;;;;;;;;8251085;28;20396;-59
2022/05/06 21:14:39;;;;;;;1.55;0.98;;;;;;;;;;8251617;28;20648;-59
2022/05/06 21:18:42;;;;;;;2.00;1.20;;;;;;;;;;8249413;28;20659;-59
2022/05/06 21:22:42;;;;;;;1.20;1.10;;;;;;;;;;8250506;28;20022;-60
2022/05/06 21:26:44;;;;;;;2.22;1.00;;;;;;;;;;8252860;28;20820;-59
2022/05/06 21:30:44;;;;;;;1.60;1.00;;;;;;;;;;8251310;28;20838;-59
2022/05/06 21:34:44;;;;;;;1.70;0.90;;;;;;;;;;8252008;28;20045;-59
2022/05/06 21:38:45;;;;;;;3.22;1.10;;;;;;;;;;8250809;28;20859;-59
2022/05/06 21:42:45;;;;;;;3.95;1.10;;;;;;;;;;8251813;28;20131;-59
2022/05/06 21:46:45;;;;;;;3.17;0.95;;;;;;;;;;8248698;28;20034;-59
2022/05/06 21:50:45;;;;;;;1.42;1.00;;;;;;;;;;8249330;28;20030;-59
2022/05/06 21:54:45;;;;;;;1.38;1.05;;;;;;;;;;8252231;28;20084;-59
2022/05/06 21:58:46;;;;;;;1.17;1.00;;;;;;;;;;8252115;28;20037;-59
2022/05/06 22:02:46;;;;;;;3.08;1.20;;;;;;;;;;8251118;28;20076;-59
2022/05/06 22:06:47;;;;;;;2.22;1.10;;;;;;;;;;8249975;28;20346;-59
2022/05/06 22:10:48;;;;;;;1.60;1.10;;;;;;;;;;8250622;28;20045;-59
2022/05/06 22:14:48;;;;;;;2.42;1.30;;;;;;;;;;8249809;28;20044;-59
2022/05/06 22:18:48;;;;;;;1.73;1.00;;;;;;;;;;8248406;28;20337;-59
2022/05/06 22:22:49;;;;;;;4.80;1.15;;;;;;;;;;8249794;28;20025;-59
2022/05/06 22:26:49;;;;;;;1.87;1.20;;;;;;;;;;8250902;28;20026;-59
2022/05/06 22:30:50;;;;;;;1.83;1.20;;;;;;;;;;8254528;28;20164;-60
2022/05/06 22:34:50;;;;;;;1.47;1.13;;;;;;;;;;8256919;28;20475;-59
2022/05/06 22:38:50;;;;;;;3.30;1.10;;;;;;;;;;8258210;28;20034;-60
2022/05/06 22:47:09;;;;;;;2.50;1.30;;;;;;;;;;8254147;28;20044;-59
2022/05/06 22:51:09;;;;;;;1.33;1.10;;;;;;;;;;8256892;28;20025;-59
2022/05/06 22:55:10;;;;;;;2.53;1.00;;;;;;;;;;8255957;28;20030;-60
2022/05/06 22:59:10;;;;;;;3.55;1.15;;;;;;;;;;8255567;28;20022;-59
2022/05/06 23:03:10;;;;;;;2.55;1.30;;;;;;;;;;8252084;28;20077;-59
2022/05/06 23:07:10;;;;;;;1.20;1.02;;;;;;;;;;8252788;28;20826;-59
2022/05/06 23:11:10;;;;;;;1.90;1.27;;;;;;;;;;8255226;28;20746;-59
2022/05/06 23:15:10;;;;;;;1.90;1.33;;;;;;;;;;8258597;28;20052;-60
2022/05/06 23:19:11;;;;;;;1.67;1.30;;;;;;;;;;8255234;28;20433;-59
2022/05/06 23:23:11;;;;;;;2.47;1.73;;;;;;;;;;8258468;28;20104;-59
2022/05/06 23:27:11;;;;;;;4.05;1.30;;;;;;;;;;8256132;28;20033;-59
2022/05/06 23:31:12;;;;;;;2.85;1.42;;;;;;;;;;8256411;28;20502;-60
2022/05/06 23:35:12;;;;;;;4.38;1.73;;;;;;;;;;8249764;28;20028;-59
2022/05/06 23:39:12;;;;;;;3.63;1.70;;;;;;;;;;8248845;28;20526;-59
2022/05/06 23:43:14;;;;;;;2.47;1.50;;;;;;;;;;8254527;28;20060;-59
2022/05/06 23:47:14;;;;;;;5.55;2.00;;;;;;;;;;8253513;28;20030;-59
2022/05/06 23:51:14;;;;;;;2.42;1.90;;;;;;;;;;8252967;28;20504;-59
2022/05/06 23:55:15;;;;;;;3.30;2.05;;;;;;;;;;8254131;28;20028;-59
2022/05/06 23:59:15;;;;;;;3.42;2.10;;;;;;;;;;8255040;28;20026;-59
